Time;durP1;ratioP1;P1;durP2;ratioP2;P2;SDS_P1;SDS_P2;PMS_P1;PMS_P2;Temp;Humidity;BMP_temperature;BMP_pressure;BME280_temperature;BME280_humidity;BME280_pressure;Samples;Min_cycle;Max_cycle;Signal;HPM_P1;HPM_P2
2021/10/31 00:06:03;;;;;;;7.45;2.45;;;10.80;99.90;;;;;;20395702;28;20074;-44
2021/10/31 00:16:07;;;;;;;8.35;2.55;;;10.80;99.90;;;;;;20408265;28;20023;-44
2021/10/31 00:26:08;;;;;;;4.15;2.05;;;10.70;99.90;;;;;;20414851;28;20067;-44
2021/10/31 00:36:09;;;;;;;6.18;3.15;;;10.70;99.90;;;;;;20422962;28;20550;-44
2021/10/31 00:46:11;;;;;;;5.63;2.30;;;10.70;99.90;;;;;;20425276;28;20717;-45
2021/10/31 00:56:12;;;;;;;7.22;2.92;;;10.60;99.90;;;;;;20429121;28;20040;-44
2021/10/31 01:06:27;;;;;;;10.10;3.17;;;10.60;99.90;;;;;;20429915;28;20055;-44
2021/10/31 01:16:43;;;;;;;8.75;3.00;;;10.50;99.90;;;;;;20435500;28;20066;-44
2021/10/31 01:27:28;;;;;;;10.13;2.65;;;10.40;99.90;;;;;;20418328;28;20035;-44
2021/10/31 01:38:09;;;;;;;7.18;4.13;;;10.50;99.90;;;;;;20423774;28;20051;-44
2021/10/31 01:48:25;;;;;;;8.65;4.60;;;10.40;99.90;;;;;;20413554;28;20466;-44
2021/10/31 01:58:32;;;;;;;11.38;4.72;;;10.40;99.90;;;;;;20392416;28;20039;-44
2021/10/31 02:08:37;;;;;;;11.35;5.03;;;10.40;99.90;;;;;;20405475;29;20055;-44
2021/10/31 02:18:40;;;;;;;19.85;6.47;;;10.30;99.90;;;;;;20416584;28;20031;-44
2021/10/31 02:28:55;;;;;;;11.32;5.32;;;10.30;99.90;;;;;;20414343;28;20067;-45
2021/10/31 02:39:01;;;;;;;14.05;4.68;;;10.40;99.90;;;;;;20422805;28;20051;-44
2021/10/31 02:49:05;;;;;;;8.73;4.85;;;10.40;99.90;;;;;;20436566;28;20498;-44
2021/10/31 02:59:20;;;;;;;10.85;3.83;;;10.40;99.90;;;;;;20427573;28;20081;-45
2021/10/31 03:09:22;;;;;;;8.98;4.15;;;10.30;99.90;;;;;;20436116;28;20055;-44
2021/10/31 03:19:23;;;;;;;7.55;3.42;;;10.30;99.90;;;;;;20443031;28;20036;-44
2021/10/31 03:29:25;;;;;;;9.80;3.75;;;10.20;99.90;;;;;;20395922;28;20791;-44
2021/10/31 03:39:26;;;;;;;8.75;3.65;;;10.20;99.90;;;;;;20893291;23;20066;-43
2021/10/31 03:49:27;;;;;;;10.85;4.22;;;10.10;99.90;;;;;;20550109;28;20047;-43
2021/10/31 03:59:28;;;;;;;7.95;3.25;;;10.10;99.90;;;;;;20547387;28;20487;-43
2021/10/31 04:09:29;;;;;;;13.38;4.03;;;10.10;99.90;;;;;;20546707;28;20059;-43
2021/10/31 04:19:30;;;;;;;8.60;3.35;;;10.10;99.90;;;;;;20553745;28;20054;-43
2021/10/31 04:29:33;;;;;;;6.78;2.80;;;10.10;99.90;;;;;;20578855;28;20065;-43
2021/10/31 04:39:34;;;;;;;8.85;3.28;;;10.00;99.90;;;;;;20538196;28;20070;-43
2021/10/31 04:49:36;;;;;;;19.83;3.92;;;10.10;99.90;;;;;;20544702;28;20042;-43
2021/10/31 04:59:37;;;;;;;10.02;3.80;;;10.10;99.90;;;;;;20545613;28;20480;-43
2021/10/31 05:09:39;;;;;;;10.85;3.08;;;10.10;99.90;;;;;;20543845;28;20050;-43
2021/10/31 05:19:40;;;;;;;10.70;4.15;;;10.10;99.90;;;;;;20543857;28;20057;-43
2021/10/31 05:29:41;;;;;;;10.32;3.95;;;10.00;99.90;;;;;;20541450;28;20051;-43
2021/10/31 05:39:43;;;;;;;8.63;3.67;;;10.00;99.90;;;;;;20539796;28;20515;-43
2021/10/31 05:49:45;;;;;;;7.75;2.92;;;10.00;99.90;;;;;;20524871;28;20054;-43
2021/10/31 05:59:46;;;;;;;8.63;2.63;;;10.00;99.90;;;;;;20532918;28;20409;-43
2021/10/31 06:09:47;;;;;;;7.25;2.78;;;9.90;99.90;;;;;;20536633;28;20058;-43
2021/10/31 06:19:48;;;;;;;8.60;3.38;;;9.90;99.90;;;;;;20543949;28;20584;-43
2021/10/31 06:29:49;;;;;;;8.63;3.42;;;9.90;99.90;;;;;;20542875;28;20051;-43
2021/10/31 06:39:50;;;;;;;7.72;2.67;;;9.80;99.90;;;;;;20535710;28;20062;-43
2021/10/31 06:49:52;;;;;;;8.18;3.28;;;9.90;99.90;;;;;;20537074;28;20065;-43
2021/10/31 06:59:53;;;;;;;6.28;2.58;;;9.80;99.90;;;;;;20539600;28;20031;-43
2021/10/31 07:09:54;;;;;;;9.30;3.70;;;9.90;99.90;;;;;;20555496;28;20053;-43
2021/10/31 07:19:55;;;;;;;7.90;2.78;;;9.90;99.90;;;;;;20553333;28;20045;-43
2021/10/31 07:29:56;;;;;;;6.72;3.13;;;10.00;99.90;;;;;;20550350;28;20058;-43
2021/10/31 07:39:58;;;;;;;8.25;3.05;;;10.10;99.90;;;;;;20555591;28;20448;-43
2021/10/31 07:49:59;;;;;;;5.88;2.75;;;10.20;99.90;;;;;;20549520;28;20066;-43
2021/10/31 08:00:01;;;;;;;8.00;3.72;;;10.20;99.90;;;;;;20548884;28;20059;-43
2021/10/31 08:10:03;;;;;;;4.82;1.92;;;10.50;99.90;;;;;;20536231;28;20042;-43
2021/10/31 08:20:07;;;;;;;6.50;3.00;;;10.60;99.90;;;;;;20536405;28;20046;-43
2021/10/31 08:30:08;;;;;;;5.93;2.38;;;10.80;99.90;;;;;;20523719;28;20559;-43
2021/10/31 08:40:10;;;;;;;5.82;2.50;;;11.10;99.90;;;;;;20537310;28;20063;-43
2021/10/31 08:50:11;;;;;;;6.03;2.00;;;11.30;99.90;;;;;;20539961;28;20058;-43
2021/10/31 09:00:13;;;;;;;6.05;2.50;;;11.60;99.90;;;;;;20552286;28;20053;-43
2021/10/31 09:10:16;;;;;;;4.43;1.70;;;12.00;99.90;;;;;;20551487;28;20126;-43
2021/10/31 09:20:19;;;;;;;6.18;2.30;;;12.20;99.90;;;;;;20552337;28;20043;-43
2021/10/31 09:30:25;;;;;;;3.83;2.22;;;12.30;99.90;;;;;;20555928;28;20054;-43
2021/10/31 09:40:27;;;;;;;4.68;1.63;;;12.40;99.90;;;;;;20546025;28;20348;-43
2021/10/31 09:50:35;;;;;;;4.25;1.50;;;12.40;99.90;;;;;;20535206;28;20256;-43
2021/10/31 10:00:42;;;;;;;4.40;1.70;;;12.40;99.90;;;;;;20548171;28;20023;-43
2021/10/31 10:10:52;;;;;;;2.83;1.10;;;12.40;99.90;;;;;;20551348;28;20050;-43
2021/10/31 10:20:53;;;;;;;3.58;1.17;;;12.60;99.90;;;;;;20538334;28;20049;-44
2021/10/31 10:31:17;;;;;;;3.70;1.23;;;12.90;99.90;;;;;;20551073;28;20401;-44
2021/10/31 10:41:44;;;;;;;4.80;1.33;;;13.00;99.90;;;;;;20534177;28;20525;-44
2021/10/31 10:52:04;;;;;;;2.25;0.95;;;13.20;99.90;;;;;;20565333;28;20061;-44
2021/10/31 11:02:17;;;;;;;3.20;1.05;;;13.30;99.90;;;;;;20563314;28;20054;-44
2021/10/31 11:12:33;;;;;;;3.72;1.08;;;13.40;99.90;;;;;;20555256;28;20050;-44
2021/10/31 11:22:36;;;;;;;1.48;0.50;;;13.30;99.90;;;;;;20554231;28;20050;-43
2021/10/31 11:32:38;;;;;;;1.77;0.60;;;13.40;99.90;;;;;;20548599;28;20038;-44
2021/10/31 11:42:45;;;;;;;1.52;0.80;;;13.50;99.90;;;;;;20540112;28;20091;-44
2021/10/31 11:52:53;;;;;;;0.98;0.35;;;13.50;99.90;;;;;;20549412;28;20061;-44
2021/10/31 12:02:58;;;;;;;;;;;13.50;99.90;;;;;;20555152;28;20049;-43
2021/10/31 12:13:20;;;;;;;1.98;0.50;;;13.50;99.90;;;;;;20485204;28;19926;-44
2021/10/31 12:23:26;;;;;;;2.28;1.05;;;13.50;99.90;;;;;;20563341;28;20046;-43
2021/10/31 12:33:27;;;;;;;1.98;0.68;;;13.60;99.90;;;;;;20557496;28;20047;-44
2021/10/31 12:43:44;;;;;;;2.92;0.50;;;13.70;99.90;;;;;;20561012;28;20051;-44
2021/10/31 12:53:45;;;;;;;1.98;0.57;;;13.90;99.90;;;;;;20549676;28;20059;-43
2021/10/31 13:03:46;;;;;;;1.30;0.60;;;13.80;99.90;;;;;;20501555;28;20035;-44
2021/10/31 13:13:47;;;;;;;2.65;0.70;;;13.90;99.90;;;;;;20545708;28;20043;-44
2021/10/31 13:23:48;;;;;;;1.20;0.35;;;14.00;99.90;;;;;;20542960;28;20038;-44
2021/10/31 13:33:55;;;;;;;1.23;0.40;;;14.40;99.90;;;;;;20545897;28;20047;-43
2021/10/31 13:43:58;;;;;;;1.92;0.68;;;14.40;99.90;;;;;;20537326;28;20738;-44
2021/10/31 13:54:01;;;;;;;2.50;0.80;;;14.50;99.90;;;;;;20554941;28;20046;-43
2021/10/31 14:04:26;;;;;;;1.83;0.70;;;14.60;99.90;;;;;;20547342;28;20476;-44
2021/10/31 14:14:48;;;;;;;1.58;0.70;;;14.60;99.90;;;;;;20537978;28;20540;-44
2021/10/31 14:25:06;;;;;;;3.80;0.95;;;14.50;99.90;;;;;;20536094;28;20604;-44
2021/10/31 14:35:11;;;;;;;2.47;0.90;;;14.50;99.90;;;;;;20527388;28;20058;-44
2021/10/31 14:45:28;;;;;;;3.80;1.35;;;14.50;99.90;;;;;;20533820;28;21118;-43
2021/10/31 14:55:29;;;;;;;3.27;1.60;;;14.50;99.90;;;;;;20533582;28;20047;-43
2021/10/31 15:05:31;;;;;;;4.18;1.40;;;14.30;99.90;;;;;;20541198;28;20038;-44
2021/10/31 15:15:32;;;;;;;4.47;1.60;;;13.90;99.90;;;;;;20543793;28;20061;-44
2021/10/31 15:25:34;;;;;;;3.38;1.65;;;13.90;99.90;;;;;;20549377;28;20070;-45
2021/10/31 15:35:35;;;;;;;3.40;1.23;;;13.80;99.90;;;;;;20559792;28;20059;-45
2021/10/31 15:45:37;;;;;;;3.10;1.55;;;13.80;99.90;;;;;;20544702;28;20069;-44
2021/10/31 15:55:42;;;;;;;5.00;1.80;;;13.80;99.90;;;;;;20550208;28;20504;-44
2021/10/31 16:05:43;;;;;;;3.90;1.75;;;13.90;99.90;;;;;;20564370;28;20023;-44
2021/10/31 16:15:45;;;;;;;2.55;1.25;;;13.90;99.90;;;;;;20573183;28;20417;-44
2021/10/31 16:25:47;;;;;;;2.10;0.63;;;14.00;99.90;;;;;;20563919;28;20058;-44
2021/10/31 16:35:48;;;;;;;2.05;0.73;;;14.20;99.90;;;;;;20548873;28;20058;-43
2021/10/31 16:45:54;;;;;;;1.23;0.40;;;14.20;99.90;;;;;;20552840;28;20127;-44
2021/10/31 16:55:57;;;;;;;1.38;0.60;;;14.40;99.90;;;;;;20548229;28;20527;-44
2021/10/31 17:05:59;;;;;;;0.80;0.45;;;14.50;99.90;;;;;;20548739;28;20072;-45
2021/10/31 17:16:00;;;;;;;1.02;0.35;;;14.70;99.90;;;;;;20541453;28;20042;-45
2021/10/31 17:26:02;;;;;;;0.40;0.30;;;14.50;99.90;;;;;;20533189;28;20058;-45
2021/10/31 17:36:03;;;;;;;0.75;0.30;;;14.30;99.90;;;;;;20545299;28;20046;-45
2021/10/31 17:46:05;;;;;;;1.88;0.35;;;14.20;99.90;;;;;;20538114;28;20046;-45
2021/10/31 17:56:07;;;;;;;5.28;0.65;;;12.90;99.90;;;;;;20544810;28;20046;-45
2021/10/31 18:06:08;;;;;;;6.90;0.95;;;12.20;99.90;;;;;;20543343;28;20066;-45
2021/10/31 18:16:09;;;;;;;10.38;0.95;;;11.80;99.90;;;;;;20529487;28;20034;-44
2021/10/31 18:26:10;;;;;;;0.80;0.30;;;11.60;99.90;;;;;;20550064;28;20439;-44
2021/10/31 18:36:12;;;;;;;2.10;0.52;;;11.60;99.90;;;;;;20548486;28;20059;-44
2021/10/31 18:46:13;;;;;;;4.28;0.90;;;11.70;99.90;;;;;;20563070;28;20043;-44
2021/10/31 18:56:15;;;;;;;5.20;1.20;;;11.60;99.90;;;;;;20550011;28;20034;-44
2021/10/31 19:06:17;;;;;;;4.85;1.05;;;11.80;99.90;;;;;;20571963;28;20056;-43
2021/10/31 19:16:19;;;;;;;6.65;1.95;;;11.80;99.90;;;;;;20567410;28;20097;-43
2021/10/31 19:26:21;;;;;;;5.80;1.48;;;11.80;99.90;;;;;;20564678;28;20051;-43
2021/10/31 19:36:22;;;;;;;1.45;0.43;;;11.70;99.90;;;;;;20556736;28;20059;-43
2021/10/31 19:46:28;;;;;;;3.65;0.65;;;11.70;99.90;;;;;;20581741;28;20065;-43
2021/10/31 19:56:34;;;;;;;2.83;1.10;;;11.70;99.90;;;;;;20595197;28;20443;-43
2021/10/31 20:06:35;;;;;;;4.43;1.25;;;11.70;99.90;;;;;;20548994;28;20047;-43
2021/10/31 20:16:36;;;;;;;5.03;1.38;;;11.60;99.90;;;;;;20548073;28;20042;-43
2021/10/31 20:26:37;;;;;;;7.13;1.48;;;11.60;99.90;;;;;;20549924;28;20043;-43
2021/10/31 20:36:39;;;;;;;6.72;1.85;;;11.50;99.90;;;;;;20554470;28;20053;-43
2021/10/31 20:46:40;;;;;;;8.10;1.20;;;11.50;99.90;;;;;;20528825;28;20038;-43
2021/10/31 20:56:43;;;;;;;3.08;0.90;;;11.50;99.90;;;;;;20557258;28;20051;-43
2021/10/31 21:06:44;;;;;;;8.10;0.70;;;11.50;99.90;;;;;;20546655;28;20061;-43
2021/10/31 21:16:45;;;;;;;2.80;1.05;;;11.40;99.90;;;;;;20553266;28;20034;-43
2021/10/31 21:26:47;;;;;;;4.78;1.08;;;11.40;99.90;;;;;;20554924;28;20042;-43
2021/10/31 21:36:50;;;;;;;3.63;0.93;;;11.30;99.90;;;;;;20541765;28;20057;-43
2021/10/31 21:46:52;;;;;;;6.82;0.90;;;11.10;99.90;;;;;;20551553;28;20736;-43
2021/10/31 21:56:53;;;;;;;6.88;1.80;;;11.10;99.90;;;;;;20549098;28;20043;-43
2021/10/31 22:06:54;;;;;;;1.75;0.63;;;11.10;99.90;;;;;;20553537;28;20050;-43
2021/10/31 22:16:58;;;;;;;6.80;0.90;;;11.00;99.90;;;;;;20536709;28;20060;-43
2021/10/31 22:27:01;;;;;;;2.55;0.80;;;10.90;99.90;;;;;;20540288;28;20161;-43
2021/10/31 22:37:02;;;;;;;4.07;0.65;;;10.90;99.90;;;;;;20532634;28;20292;-43
2021/10/31 22:47:03;;;;;;;7.10;1.13;;;10.70;99.90;;;;;;20561267;28;20405;-43
2021/10/31 22:57:04;;;;;;;2.90;0.82;;;10.70;99.90;;;;;;20565472;28;20042;-43
2021/10/31 23:07:07;;;;;;;1.58;0.50;;;10.70;99.90;;;;;;20561122;28;20043;-43
2021/10/31 23:17:10;;;;;;;7.32;0.90;;;10.70;99.90;;;;;;20554497;28;20038;-43
2021/10/31 23:27:11;;;;;;;3.17;0.60;;;10.60;99.90;;;;;;20548908;28;20591;-43
2021/10/31 23:37:12;;;;;;;2.72;0.75;;;10.60;99.90;;;;;;20552698;28;20130;-43
2021/10/31 23:47:13;;;;;;;11.10;1.42;;;10.50;99.90;;;;;;20562361;28;20070;-43
2021/10/31 23:57:15;;;;;;;1.95;1.00;;;10.50;99.90;;;;;;20544937;28;20055;-43
